createdAt,value
2018-07-19T00:00:12.538Z,75.87
2018-07-19T00:02:40.092Z,75.67
2018-07-19T00:05:07.501Z,75.91
2018-07-19T00:07:35.103Z,75.75
2018-07-19T00:10:02.476Z,74.98
2018-07-19T00:12:29.906Z,75.40
2018-07-19T00:14:57.438Z,75.00
2018-07-19T00:17:24.741Z,74.47
2018-07-19T00:19:52.270Z,75.53
2018-07-19T00:22:19.731Z,76.17
2018-07-19T00:24:47.260Z,75.59
2018-07-19T00:27:14.720Z,75.57
2018-07-19T00:29:42.314Z,75.90
2018-07-19T00:32:09.757Z,75.76
2018-07-19T00:34:37.185Z,75.90
2018-07-19T00:37:04.711Z,75.43
2018-07-19T00:39:32.286Z,75.38
2018-07-19T00:41:59.553Z,76.93
2018-07-19T00:44:26.841Z,77.25
2018-07-19T00:46:54.483Z,76.32
2018-07-19T00:49:21.787Z,77.84
2018-07-19T00:51:49.225Z,77.95
2018-07-19T00:54:16.878Z,76.64
2018-07-19T00:56:44.335Z,76.08
2018-07-19T00:59:11.579Z,76.54
2018-07-19T01:01:38.820Z,76.39
2018-07-19T01:04:06.089Z,76.21
2018-07-19T01:06:33.825Z,76.02
2018-07-19T01:09:01.098Z,76.60
2018-07-19T01:11:29.315Z,76.57
2018-07-19T01:13:56.664Z,77.45
2018-07-19T01:16:24.085Z,78.63
2018-07-19T01:18:51.457Z,79.02
2018-07-19T01:21:18.849Z,77.72
2018-07-19T01:23:46.130Z,77.26
2018-07-19T01:26:13.679Z,78.61
2018-07-19T01:28:40.967Z,78.15
2018-07-19T01:31:08.347Z,79.11
2018-07-19T01:33:35.673Z,78.30
2018-07-19T01:36:02.930Z,78.50
2018-07-19T01:38:30.360Z,78.04
2018-07-19T01:40:58.723Z,78.85
2018-07-19T01:43:26.554Z,78.96
2018-07-19T01:45:54.161Z,81.05
2018-07-19T01:48:21.629Z,79.20
2018-07-19T01:50:48.897Z,78.82
2018-07-19T01:53:16.421Z,78.78
2018-07-19T01:55:43.912Z,79.09
2018-07-19T01:58:11.202Z,79.05
2018-07-19T02:00:38.583Z,79.21
2018-07-19T02:03:05.947Z,79.81
2018-07-19T02:05:33.611Z,80.45
2018-07-19T02:08:01.040Z,80.34
2018-07-19T02:10:28.568Z,79.40
2018-07-19T02:12:56.223Z,80.19
2018-07-19T02:15:23.514Z,81.33
2018-07-19T02:17:50.956Z,81.65
2018-07-19T02:20:18.207Z,80.23
2018-07-19T02:22:46.731Z,80.13
2018-07-19T02:25:14.249Z,82.13
2018-07-19T02:27:41.504Z,80.81
2018-07-19T02:30:08.750Z,80.72
2018-07-19T02:32:36.003Z,80.36
2018-07-19T02:35:03.683Z,81.09
2018-07-19T02:37:31.092Z,81.59
2018-07-19T02:39:58.838Z,80.52
2018-07-19T02:42:26.094Z,80.52
2018-07-19T02:44:53.398Z,80.74
2018-07-19T02:47:20.668Z,80.88
2018-07-19T02:49:47.975Z,81.30
2018-07-19T02:52:15.232Z,81.85
2018-07-19T02:54:43.284Z,81.19
2018-07-19T02:57:10.532Z,81.37
2018-07-19T02:59:38.101Z,81.04
2018-07-19T03:02:07.533Z,81.44
2018-07-19T03:04:34.849Z,81.38
2018-07-19T03:07:02.221Z,80.95
2018-07-19T03:09:29.673Z,81.69
2018-07-19T03:11:57.107Z,81.31
2018-07-19T03:14:24.877Z,81.51
2018-07-19T03:16:52.572Z,81.24
2018-07-19T03:19:21.212Z,81.56
2018-07-19T03:21:49.227Z,81.62
2018-07-19T03:24:16.954Z,82.07
2018-07-19T03:26:44.232Z,82.80
2018-07-19T03:29:12.112Z,82.45
2018-07-19T03:31:39.362Z,82.12
2018-07-19T03:34:06.708Z,81.85
2018-07-19T03:36:34.049Z,81.98
2018-07-19T03:39:01.488Z,82.07
2018-07-19T03:41:29.259Z,82.60
2018-07-19T03:43:56.629Z,82.51
2018-07-19T03:46:24.218Z,82.89
2018-07-19T03:48:51.642Z,82.58
2018-07-19T03:51:18.945Z,82.43
2018-07-19T03:53:46.718Z,83.32
2018-07-19T03:56:15.028Z,82.26
2018-07-19T03:58:42.407Z,82.10
2018-07-19T04:01:09.987Z,83.65
2018-07-19T04:03:37.372Z,82.89
2018-07-19T04:06:11.660Z,82.95
2018-07-19T04:08:38.965Z,83.14
2018-07-19T04:11:06.416Z,83.71
2018-07-19T04:13:33.685Z,82.93
2018-07-19T04:16:01.213Z,82.77
2018-07-19T04:18:28.702Z,83.26
2018-07-19T04:20:55.966Z,83.40
2018-07-19T04:23:23.316Z,83.08
2018-07-19T04:25:50.670Z,83.01
2018-07-19T04:28:18.507Z,82.35
2018-07-19T04:30:46.258Z,82.77
2018-07-19T04:33:14.181Z,82.43
2018-07-19T04:35:41.453Z,83.42
2018-07-19T04:38:08.792Z,82.35
2018-07-19T04:40:36.093Z,81.74
2018-07-19T04:43:03.418Z,81.47
2018-07-19T04:45:30.885Z,80.76
2018-07-19T04:47:58.442Z,81.13
2018-07-19T04:50:25.938Z,81.43
2018-07-19T04:52:53.242Z,81.04
2018-07-19T04:55:20.559Z,81.82
2018-07-19T04:57:47.858Z,81.33
2018-07-19T05:00:15.266Z,81.52
2018-07-19T05:02:42.507Z,81.05
2018-07-19T05:05:09.941Z,81.28
2018-07-19T05:07:37.352Z,81.73
2018-07-19T05:10:04.881Z,81.55
2018-07-19T05:12:32.428Z,84.90
2018-07-19T05:14:59.768Z,83.59
2018-07-19T05:17:27.019Z,81.33
2018-07-19T05:19:54.293Z,81.38
2018-07-19T05:22:21.554Z,82.06
2018-07-19T05:24:48.874Z,80.72
2018-07-19T05:27:16.394Z,81.09
2018-07-19T05:29:44.104Z,81.21
2018-07-19T05:32:11.763Z,80.81
2018-07-19T05:34:39.291Z,80.11
2018-07-19T05:37:07.065Z,79.65
2018-07-19T05:39:34.713Z,80.16
2018-07-19T05:42:02.627Z,80.80
2018-07-19T05:44:30.914Z,81.22
2018-07-19T05:46:58.497Z,80.62
2018-07-19T05:49:26.133Z,79.50
2018-07-19T05:51:53.804Z,79.21
2018-07-19T05:54:21.912Z,79.62
2018-07-19T05:56:49.513Z,80.51
2018-07-19T05:59:17.113Z,79.44
2018-07-19T06:01:44.566Z,80.47
2018-07-19T06:04:11.993Z,78.94
2018-07-19T06:06:39.642Z,79.22
2018-07-19T06:09:08.068Z,79.21
2018-07-19T06:11:35.645Z,78.39
2018-07-19T06:14:04.650Z,78.12
2018-07-19T06:16:31.935Z,76.83
2018-07-19T06:18:59.448Z,76.85
2018-07-19T06:21:26.793Z,76.30
2018-07-19T06:23:54.068Z,75.92
2018-07-19T06:26:21.443Z,75.78
2018-07-19T06:28:48.858Z,74.81
2018-07-19T06:31:16.326Z,74.19
2018-07-19T06:33:43.616Z,73.58
2018-07-19T06:36:10.938Z,73.13
2018-07-19T06:38:38.997Z,72.67
2018-07-19T06:41:06.371Z,72.64
2018-07-19T06:43:33.642Z,72.19
2018-07-19T06:46:01.389Z,71.29
2018-07-19T06:48:28.759Z,70.55
2018-07-19T06:50:56.104Z,71.12
2018-07-19T06:53:23.521Z,70.66
2018-07-19T06:55:50.842Z,70.35
2018-07-19T06:58:18.222Z,69.67
2018-07-19T07:00:45.504Z,69.24
2018-07-19T07:03:13.203Z,68.82
2018-07-19T07:05:40.641Z,68.23
2018-07-19T07:08:07.971Z,68.67
2018-07-19T07:10:35.348Z,67.99
2018-07-19T07:13:03.036Z,67.92
2018-07-19T07:15:30.568Z,66.25
2018-07-19T07:17:58.057Z,64.71
2018-07-19T07:20:25.583Z,64.57
2018-07-19T07:22:53.010Z,64.97
2018-07-19T07:25:20.325Z,64.29
2018-07-19T07:27:47.749Z,64.05
2018-07-19T07:30:15.119Z,61.60
2018-07-19T07:32:42.758Z,61.97
2018-07-19T07:35:10.432Z,61.43
2018-07-19T07:37:37.791Z,60.24
2018-07-19T07:40:05.340Z,59.03
2018-07-19T07:42:32.631Z,46.86
2018-07-19T07:44:59.980Z,41.00
2018-07-19T07:47:27.329Z,42.93
2018-07-19T07:49:54.621Z,43.89
2018-07-19T07:52:22.124Z,44.41
2018-07-19T07:54:49.411Z,43.83
2018-07-19T07:57:16.702Z,38.99
2018-07-19T07:59:44.703Z,41.35
2018-07-19T08:02:12.185Z,35.50
2018-07-19T08:04:40.248Z,31.86
2018-07-19T08:07:07.699Z,32.11
2018-07-19T08:09:35.070Z,28.93
2018-07-19T08:12:02.311Z,28.34
2018-07-19T08:14:29.658Z,28.95
2018-07-19T08:16:56.994Z,31.76
2018-07-19T08:19:24.269Z,32.02
2018-07-19T08:21:51.765Z,30.99
2018-07-19T08:24:19.236Z,31.46
2018-07-19T08:26:46.631Z,31.75
2018-07-19T08:29:13.932Z,34.25
2018-07-19T08:31:41.579Z,34.72
2018-07-19T08:34:09.081Z,35.49
2018-07-19T08:36:36.409Z,37.29
2018-07-19T08:39:06.927Z,35.61
2018-07-19T08:41:34.505Z,36.28
2018-07-19T08:44:02.005Z,36.25
2018-07-19T08:46:29.286Z,33.97
2018-07-19T08:48:57.618Z,35.52
2018-07-19T08:51:24.999Z,37.30
2018-07-19T08:53:52.366Z,37.65
2018-07-19T08:56:19.870Z,38.59
2018-07-19T08:58:47.231Z,38.98
2018-07-19T09:01:14.474Z,39.51
2018-07-19T09:03:42.476Z,38.15
2018-07-19T09:06:09.930Z,38.94
2018-07-19T09:08:37.377Z,39.33
2018-07-19T09:11:04.762Z,39.41
2018-07-19T09:13:32.882Z,40.97
2018-07-19T09:16:00.219Z,41.96
2018-07-19T09:18:27.640Z,42.14
2018-07-19T09:20:54.949Z,41.90
2018-07-19T09:23:22.373Z,41.72
2018-07-19T09:25:49.678Z,41.93
2018-07-19T09:28:17.031Z,42.49
2018-07-19T09:30:44.416Z,40.99
2018-07-19T09:33:11.797Z,41.40
2018-07-19T09:35:39.694Z,41.98
2018-07-19T09:38:07.223Z,43.37
2018-07-19T09:40:34.682Z,43.50
2018-07-19T09:43:02.923Z,42.20
2018-07-19T09:45:30.434Z,42.46
2018-07-19T09:47:57.940Z,42.80
2018-07-19T09:50:25.419Z,42.00
2018-07-19T09:52:52.876Z,42.71
2018-07-19T09:55:20.403Z,40.85
2018-07-19T09:57:47.889Z,40.71
2018-07-19T10:00:20.534Z,40.90
2018-07-19T10:02:48.225Z,38.65
2018-07-19T10:05:15.856Z,37.01
2018-07-19T10:07:43.586Z,35.62
2018-07-19T10:10:11.119Z,35.78
2018-07-19T10:12:38.740Z,34.02
2018-07-19T10:15:06.408Z,33.59
2018-07-19T10:17:33.917Z,32.01
2018-07-19T10:20:01.426Z,30.70
2018-07-19T10:22:29.552Z,30.99
2018-07-19T10:24:57.034Z,31.51
2018-07-19T10:27:24.575Z,30.45
2018-07-19T10:29:52.095Z,31.06
2018-07-19T10:32:19.845Z,31.81
2018-07-19T10:34:47.259Z,32.15
2018-07-19T10:37:14.881Z,30.32
2018-07-19T10:39:42.528Z,29.22
2018-07-19T10:42:11.218Z,28.30
2018-07-19T10:44:38.744Z,28.38
2018-07-19T10:47:06.276Z,28.87
2018-07-19T10:49:33.861Z,30.47
2018-07-19T10:52:01.303Z,27.30
2018-07-19T10:54:28.759Z,29.55
2018-07-19T10:56:56.422Z,28.81
2018-07-19T10:59:23.974Z,28.23
2018-07-19T11:01:51.510Z,28.21
2018-07-19T11:04:19.200Z,28.49
2018-07-19T11:06:46.842Z,29.41
2018-07-19T11:09:14.465Z,27.55
2018-07-19T11:11:42.153Z,26.78
2018-07-19T11:14:09.730Z,26.59
2018-07-19T11:16:38.370Z,27.00
2018-07-19T11:19:05.988Z,26.15
2018-07-19T11:21:33.607Z,28.76
2018-07-19T11:24:01.201Z,27.26
2018-07-19T11:26:28.602Z,27.20
2018-07-19T11:28:56.064Z,26.53
2018-07-19T11:31:23.554Z,29.28
2018-07-19T11:33:50.977Z,27.88
2018-07-19T11:36:18.621Z,26.34
2018-07-19T11:38:46.097Z,24.83
2018-07-19T11:41:13.708Z,25.08
2018-07-19T11:43:41.166Z,26.06
2018-07-19T11:46:08.604Z,27.16
2018-07-19T11:48:36.264Z,26.64
2018-07-19T11:51:03.824Z,26.14
2018-07-19T11:53:31.295Z,27.42
2018-07-19T11:55:58.795Z,26.59
2018-07-19T11:58:26.180Z,26.78
2018-07-19T12:00:53.765Z,26.58
2018-07-19T12:03:21.142Z,26.00
2018-07-19T12:05:48.531Z,26.90
2018-07-19T12:08:15.910Z,26.04
2018-07-19T12:10:43.271Z,25.80
2018-07-19T12:13:10.719Z,24.38
2018-07-19T12:15:38.082Z,24.74
2018-07-19T12:18:05.445Z,26.07
2018-07-19T12:20:33.053Z,26.45
2018-07-19T12:23:00.638Z,25.90
2018-07-19T12:25:31.970Z,24.59
2018-07-19T12:27:59.310Z,23.87
2018-07-19T12:30:31.537Z,24.20
2018-07-19T12:32:58.866Z,25.28
2018-07-19T12:35:26.234Z,24.94
2018-07-19T12:37:53.763Z,25.14
2018-07-19T12:40:21.395Z,25.46
2018-07-19T12:42:48.829Z,23.76
2018-07-19T12:45:16.178Z,23.63
2018-07-19T12:47:43.636Z,22.87
2018-07-19T12:50:11.232Z,23.82
2018-07-19T12:52:38.624Z,24.46
2018-07-19T12:55:06.048Z,26.46
2018-07-19T12:57:33.439Z,25.47
2018-07-19T13:00:00.828Z,26.11
2018-07-19T13:02:30.246Z,26.57
2018-07-19T13:04:57.570Z,25.85
2018-07-19T13:07:24.906Z,26.16
2018-07-19T13:09:52.387Z,26.77
2018-07-19T13:12:20.213Z,27.88
2018-07-19T13:14:49.757Z,27.48
2018-07-19T13:17:17.363Z,26.75
2018-07-19T13:19:45.268Z,26.39
2018-07-19T13:22:12.706Z,26.55
2018-07-19T13:24:40.128Z,26.87
2018-07-19T13:27:07.647Z,26.94
2018-07-19T13:29:35.074Z,28.11
2018-07-19T13:32:02.741Z,26.86
2018-07-19T13:34:30.869Z,27.09
2018-07-19T13:36:58.898Z,28.59
2018-07-19T13:39:26.616Z,28.47
2018-07-19T13:41:54.085Z,29.82
2018-07-19T13:44:21.875Z,29.69
2018-07-19T13:46:49.447Z,28.73
2018-07-19T13:49:17.369Z,30.18
2018-07-19T13:51:44.791Z,31.79
2018-07-19T13:54:20.876Z,30.96
2018-07-19T13:56:48.484Z,30.57
2018-07-19T13:59:16.712Z,31.78
2018-07-19T14:01:44.276Z,32.69
2018-07-19T14:04:12.154Z,32.83
2018-07-19T14:06:40.018Z,33.51
2018-07-19T14:09:11.205Z,32.78
2018-07-19T14:11:38.770Z,33.14
2018-07-19T14:14:07.031Z,33.39
2018-07-19T14:16:35.409Z,34.13
2018-07-19T14:19:02.999Z,33.56
2018-07-19T14:21:30.631Z,32.93
2018-07-19T14:23:58.359Z,33.51
2018-07-19T14:26:26.012Z,32.98
2018-07-19T14:28:53.879Z,33.27
2018-07-19T14:31:21.502Z,33.92
2018-07-19T14:33:49.104Z,33.70
2018-07-19T14:36:16.795Z,34.32
2018-07-19T14:38:44.465Z,32.96
2018-07-19T14:41:12.864Z,33.15
2018-07-19T14:43:40.618Z,32.11
2018-07-19T14:46:08.336Z,32.29
2018-07-19T14:48:36.246Z,31.60
2018-07-19T14:51:04.068Z,31.66
2018-07-19T14:53:31.877Z,29.43
2018-07-19T14:55:59.525Z,29.61
2018-07-19T14:58:27.156Z,30.47
2018-07-19T15:00:55.157Z,30.24
2018-07-19T15:03:22.917Z,30.45
2018-07-19T15:05:50.946Z,29.44
2018-07-19T15:08:18.559Z,31.20
2018-07-19T15:10:46.221Z,32.02
2018-07-19T15:13:13.850Z,31.59
2018-07-19T15:15:41.489Z,32.01
2018-07-19T15:18:09.266Z,32.30
2018-07-19T15:20:36.935Z,31.00
2018-07-19T15:23:04.991Z,32.01
2018-07-19T15:25:32.655Z,31.34
2018-07-19T15:28:00.271Z,32.53
2018-07-19T15:30:27.883Z,31.81
2018-07-19T15:32:55.465Z,33.09
2018-07-19T15:35:23.123Z,31.94
2018-07-19T15:37:50.758Z,30.95
2018-07-19T15:40:18.448Z,29.73
2018-07-19T15:42:46.067Z,29.54
2018-07-19T15:45:13.658Z,29.09
2018-07-19T15:47:41.358Z,28.80
2018-07-19T15:50:08.954Z,28.42
2018-07-19T15:52:37.288Z,28.37
2018-07-19T15:55:05.144Z,29.01
2018-07-19T15:57:33.737Z,29.17
2018-07-19T16:00:01.489Z,29.70
2018-07-19T16:02:29.195Z,29.24
2018-07-19T16:04:56.924Z,30.55
2018-07-19T16:07:24.614Z,29.85
2018-07-19T16:09:52.277Z,29.35
2018-07-19T16:12:19.797Z,29.98
2018-07-19T16:14:47.340Z,29.34
2018-07-19T16:17:14.931Z,31.01
2018-07-19T16:19:43.062Z,30.99
2018-07-19T16:22:10.505Z,31.07
2018-07-19T16:24:38.368Z,32.02
2018-07-19T16:27:05.879Z,33.44
2018-07-19T16:29:33.390Z,33.89
2018-07-19T16:32:00.938Z,35.33
2018-07-19T16:34:28.496Z,36.54
2018-07-19T16:36:56.378Z,35.91
2018-07-19T16:39:23.925Z,37.58
2018-07-19T16:41:51.422Z,37.79
2018-07-19T16:44:18.926Z,36.04
2018-07-19T16:46:46.474Z,37.42
2018-07-19T16:49:13.984Z,37.50
2018-07-19T16:51:41.609Z,38.72
2018-07-19T16:54:09.194Z,38.23
2018-07-19T16:56:36.878Z,38.45
2018-07-19T16:59:04.542Z,38.36
2018-07-19T17:01:32.176Z,39.69
2018-07-19T17:03:59.618Z,39.85
2018-07-19T17:06:26.894Z,38.54
2018-07-19T17:08:54.764Z,39.20
2018-07-19T17:11:22.128Z,39.45
2018-07-19T17:13:49.518Z,40.53
2018-07-19T17:16:16.990Z,39.57
2018-07-19T17:18:44.397Z,38.64
2018-07-19T17:21:11.807Z,39.77
2018-07-19T17:23:39.305Z,40.15
2018-07-19T17:26:06.613Z,40.73
2018-07-19T17:28:34.032Z,41.17
2018-07-19T17:31:01.335Z,39.83
2018-07-19T17:33:28.596Z,40.81
2018-07-19T17:35:55.917Z,42.45
2018-07-19T17:38:23.277Z,43.01
2018-07-19T17:40:50.681Z,43.49
2018-07-19T17:43:18.058Z,44.04
2018-07-19T17:45:45.404Z,45.27
2018-07-19T17:48:12.726Z,44.24
2018-07-19T17:53:14.049Z,44.68
2018-07-19T17:55:41.401Z,45.02
2018-07-19T17:58:08.797Z,44.94
2018-07-19T18:00:36.782Z,45.66
2018-07-19T18:03:04.058Z,45.57
2018-07-19T18:05:31.381Z,46.46
2018-07-19T18:07:58.724Z,46.89
2018-07-19T18:10:26.018Z,48.13
2018-07-19T18:12:53.514Z,49.14
2018-07-19T18:15:20.932Z,49.70
2018-07-19T18:17:48.244Z,49.96
2018-07-19T18:20:15.620Z,50.16
2018-07-19T18:22:42.992Z,50.84
2018-07-19T18:25:10.360Z,51.19
2018-07-19T18:27:37.719Z,51.61
2018-07-19T18:30:06.076Z,51.91
2018-07-19T18:32:33.436Z,52.74
2018-07-19T18:35:00.809Z,52.52
2018-07-19T18:37:28.797Z,52.52
2018-07-19T18:39:56.833Z,52.69
2018-07-19T18:42:24.215Z,53.58
2018-07-19T18:44:51.526Z,54.85
2018-07-19T18:47:18.839Z,55.54
2018-07-19T18:49:46.898Z,55.38
2018-07-19T18:52:15.120Z,56.03
2018-07-19T18:54:42.546Z,56.02
2018-07-19T18:57:09.842Z,56.61
2018-07-19T18:59:37.092Z,55.62
2018-07-19T19:02:04.389Z,57.09
2018-07-19T19:04:31.710Z,57.59
2018-07-19T19:06:59.048Z,58.24
2018-07-19T19:09:26.367Z,58.01
2018-07-19T19:11:53.763Z,58.14
2018-07-19T19:14:21.150Z,59.45
2018-07-19T19:16:48.471Z,59.28
2018-07-19T19:19:15.901Z,59.25
2018-07-19T19:21:43.426Z,58.90
2018-07-19T19:24:11.782Z,59.43
2018-07-19T19:26:39.084Z,59.95
2018-07-19T19:29:06.355Z,60.40
2018-07-19T19:31:33.691Z,59.79
2018-07-19T19:34:00.959Z,59.86
2018-07-19T19:36:28.409Z,60.03
2018-07-19T19:38:55.789Z,60.20
2018-07-19T19:41:23.171Z,60.62
2018-07-19T19:43:50.478Z,62.35
2018-07-19T19:46:17.804Z,61.93
2018-07-19T19:48:45.247Z,62.18
2018-07-19T19:51:13.302Z,62.72
2018-07-19T19:53:40.619Z,63.43
2018-07-19T19:56:08.092Z,64.12
2018-07-19T19:58:35.481Z,64.11
2018-07-19T20:01:02.792Z,64.39
2018-07-19T20:03:30.151Z,64.92
2018-07-19T20:05:57.894Z,64.75
2018-07-19T20:08:25.429Z,66.09
2018-07-19T20:10:52.809Z,64.77
2018-07-19T20:13:20.866Z,65.68
2018-07-19T20:15:48.257Z,66.16
2018-07-19T20:18:15.645Z,66.60
2018-07-19T20:20:43.028Z,66.05
2018-07-19T20:23:10.502Z,66.45
2018-07-19T20:25:37.863Z,66.27
2018-07-19T20:28:05.937Z,67.27
2018-07-19T20:30:33.310Z,67.89
2018-07-19T20:33:00.664Z,67.72
2018-07-19T20:35:28.184Z,68.91
2018-07-19T20:37:55.667Z,67.89
2018-07-19T20:40:23.035Z,69.32
2018-07-19T20:42:50.391Z,69.38
2018-07-19T20:45:17.905Z,69.22
2018-07-19T20:47:45.294Z,69.07
2018-07-19T20:50:12.590Z,69.82
2018-07-19T20:52:39.980Z,69.28
2018-07-19T20:55:07.743Z,70.05
2018-07-19T20:57:35.309Z,70.06
2018-07-19T21:00:02.827Z,70.33
2018-07-19T21:02:30.178Z,69.68
2018-07-19T21:04:57.624Z,70.89
2018-07-19T21:07:25.008Z,71.17
2018-07-19T21:09:52.409Z,70.69
2018-07-19T21:12:19.792Z,71.00
2018-07-19T21:14:47.119Z,70.52
2018-07-19T21:17:14.648Z,71.46
2018-07-19T21:19:42.050Z,71.48
2018-07-19T21:22:09.466Z,70.99
2018-07-19T21:24:36.797Z,71.85
2018-07-19T21:27:05.002Z,72.56
2018-07-19T21:29:33.481Z,72.46
2018-07-19T21:32:01.089Z,72.67
2018-07-19T21:34:28.745Z,72.10
2018-07-19T21:36:56.519Z,72.20
2018-07-19T21:39:24.564Z,72.41
2018-07-19T21:41:52.014Z,71.89
2018-07-19T21:44:21.644Z,72.20
2018-07-19T21:46:48.976Z,71.90
2018-07-19T21:49:17.496Z,72.45
2018-07-19T21:51:44.877Z,72.40
2018-07-19T21:54:13.515Z,72.31
2018-07-19T21:56:40.896Z,72.21
2018-07-19T21:59:08.221Z,72.31
2018-07-19T22:01:40.099Z,72.17
2018-07-19T22:04:07.385Z,71.74
2018-07-19T22:06:34.758Z,72.02
2018-07-19T22:09:03.099Z,71.89
2018-07-19T22:11:30.444Z,71.93
2018-07-19T22:13:57.768Z,71.77
2018-07-19T22:16:25.309Z,71.72
2018-07-19T22:18:53.206Z,71.66
2018-07-19T22:21:20.836Z,71.47
2018-07-19T22:23:48.277Z,71.16
2018-07-19T22:26:16.321Z,71.16
2018-07-19T22:28:43.641Z,71.26
2018-07-19T22:31:11.103Z,71.60
2018-07-19T22:33:38.344Z,71.50
2018-07-19T22:36:05.683Z,71.65
2018-07-19T22:38:33.021Z,71.82
2018-07-19T22:41:00.412Z,71.71
2018-07-19T22:43:27.722Z,71.60
2018-07-19T22:45:54.968Z,71.65
2018-07-19T22:48:22.303Z,72.10
2018-07-19T22:50:50.280Z,71.92
2018-07-19T22:53:17.575Z,71.51
2018-07-19T22:55:45.001Z,71.59
2018-07-19T22:58:12.320Z,71.72
2018-07-19T23:00:39.726Z,72.38
2018-07-19T23:03:07.077Z,72.44
2018-07-19T23:05:34.371Z,72.60
2018-07-19T23:08:01.659Z,72.57
2018-07-19T23:10:28.969Z,72.80
2018-07-19T23:12:56.262Z,72.98
2018-07-19T23:15:23.542Z,73.10
2018-07-19T23:17:51.055Z,73.22
2018-07-19T23:20:18.381Z,73.07
2018-07-19T23:22:56.509Z,72.99
2018-07-19T23:25:23.733Z,73.58
2018-07-19T23:27:51.244Z,73.45
2018-07-19T23:30:18.880Z,73.35
2018-07-19T23:32:46.243Z,73.66
2018-07-19T23:35:13.622Z,74.05
2018-07-19T23:37:42.149Z,74.34
2018-07-19T23:40:20.245Z,74.59
2018-07-19T23:42:53.770Z,74.03
2018-07-19T23:45:26.483Z,74.53
2018-07-19T23:47:54.733Z,75.12
2018-07-19T23:50:21.970Z,74.76
2018-07-19T23:52:49.323Z,74.52
2018-07-19T23:55:16.628Z,74.85
2018-07-19T23:57:43.991Z,75.07
